»·PEaware :: AAL4489 KEGE-KDEN

AAL4489 :: KEGE-KDEN

FLIGHT INFORMATION

Flight Status: Arrived
Operator:
American Airlines
More flights by this operator :: More flights under this callsign
Pilot: Jamie M. (16133)
Aircraft: DEHAVILLAND DASH 8 400
(DH8D)
More flights by this aircraft type
Origin: KEGE Eagle Co Regl
United States
Destination: KDEN Denver Intl
United States
More flights between these airports :: More routes between these airports
Route: GYPSM5 RLG TOMSN6
File this flight plan on PilotEdge
Remarks:
Altitude:
(Current/Filed)
17,000ft
Speed:
(Current/Filed)
320kts
Departed: 14-May-18 04:50 PM
Arrived: 14-May-18 05:32 PM
Distance/Time
Traveled:
104nm/0:42
Distance/Time
To Go:
Arrived

Flight Plot

Page will automatically refresh every two minutes.


Map Options




Map Legend


Flown Route
Filed Route
Departure Airport
Arrival Airport
Navaid (VOR, NDB)
Fix

Horizontal Profiles

Position Reports

Time Latitude Longitude Heading Altitude Ground
Speed
14-May-18 16:19 39.640548 -106.915449 171 6522ft 0kts
14-May-18 16:20 39.640548 -106.915449 171 6522ft 0kts
14-May-18 16:21 39.640548 -106.915449 171 6522ft 0kts
14-May-18 16:22 39.640548 -106.915449 171 6522ft 0kts
14-May-18 16:23 39.640548 -106.915449 171 6522ft 0kts
14-May-18 16:24 39.640548 -106.915449 171 6522ft 0kts
14-May-18 16:25 39.640548 -106.915449 171 6522ft 0kts
14-May-18 16:26 39.640548 -106.915449 171 6522ft 0kts
14-May-18 16:27 39.640548 -106.915449 171 6522ft 0kts
14-May-18 16:28 39.640548 -106.915449 171 6522ft 0kts
14-May-18 16:29 39.640548 -106.915449 171 6522ft 0kts
14-May-18 16:30 39.640548 -106.915449 171 6522ft 0kts
14-May-18 16:31 39.640548 -106.915449 171 6522ft 0kts
14-May-18 16:32 39.640548 -106.915449 171 6522ft 0kts
14-May-18 16:33 39.640548 -106.915449 171 6522ft 0kts
14-May-18 16:34 39.640548 -106.915449 171 6522ft 0kts
14-May-18 16:35 39.640548 -106.915449 171 6522ft 0kts
14-May-18 16:36 39.640548 -106.915449 171 6522ft 0kts
14-May-18 16:37 39.640563 -106.915452 171 6522ft 1kts
14-May-18 16:38 39.641150 -106.915574 168 6522ft 0kts
14-May-18 16:39 39.641150 -106.915574 168 6522ft 0kts
14-May-18 16:40 39.641150 -106.915574 168 6522ft 0kts
14-May-18 16:41 39.641150 -106.915574 168 6522ft 0kts
14-May-18 16:42 39.641150 -106.915574 168 6522ft 0kts
14-May-18 16:43 39.641150 -106.915574 168 6522ft 0kts
14-May-18 16:44 39.641331 -106.913513 81 6522ft 13kts
14-May-18 16:45 39.641513 -106.912540 46 6522ft 0kts
14-May-18 16:46 39.641892 -106.912244 26 6522ft 8kts
14-May-18 16:47 39.642576 -106.907525 80 6522ft 12kts
14-May-18 16:48 39.643218 -106.901563 82 6522ft 23kts
14-May-18 16:49 39.643548 -106.900164 28 6522ft 4kts
14-May-18 16:50 39.643628 -106.908021 259 6523ft 85kts
14-May-18 16:51 39.629502 -106.950854 221 7543ft 144kts
14-May-18 16:52 39.602025 -106.993374 270 8961ft 163kts
14-May-18 16:53 39.637475 -107.030234 331 10395ft 173kts
14-May-18 16:54 39.683071 -107.058270 331 12008ft 182kts
14-May-18 16:55 39.731078 -107.083763 359 13795ft 194kts
14-May-18 16:56 39.767796 -107.028377 62 15146ft 238kts
14-May-18 16:57 39.797829 -106.949589 65 16801ft 253kts
14-May-18 16:58 39.829236 -106.857735 67 17013ft 306kts
14-May-18 16:59 39.867006 -106.755183 61 17038ft 335kts
14-May-18 17:00 39.914098 -106.647515 61 17047ft 350kts
14-May-18 17:01 39.962002 -106.536070 61 17049ft 356kts
14-May-18 17:02 40.014944 -106.430064 39 17039ft 355kts
14-May-18 17:03 40.094231 -106.358605 32 17033ft 351kts
14-May-18 17:04 40.174825 -106.289395 33 17058ft 351kts
14-May-18 17:05 40.254813 -106.217982 33 17061ft 351kts
14-May-18 17:06 40.333820 -106.147950 33 17083ft 348kts
14-May-18 17:07 40.412449 -106.078521 33 17111ft 349kts
14-May-18 17:08 40.492259 -106.008159 33 17106ft 351kts
14-May-18 17:09 40.568857 -105.933185 56 17110ft 349kts
14-May-18 17:10 40.582492 -105.833709 89 17155ft 344kts
14-May-18 17:11 40.559887 -105.717329 128 17107ft 340kts
14-May-18 17:12 40.498447 -105.627241 137 17095ft 338kts
14-May-18 17:13 40.421993 -105.527096 140 17086ft 339kts
14-May-18 17:14 40.352498 -105.442624 140 17030ft 344kts
14-May-18 17:15 40.284185 -105.359368 140 17018ft 345kts
14-May-18 17:16 40.215710 -105.276353 140 17029ft 345kts
14-May-18 17:17 40.145748 -105.191263 140 17016ft 345kts
14-May-18 17:18 40.076907 -105.106971 139 17027ft 344kts
14-May-18 17:19 40.020053 -105.037260 140 16373ft 335kts
14-May-18 17:20 39.961990 -104.965265 140 15490ft 327kts
14-May-18 17:21 39.904961 -104.892575 140 14639ft 321kts
14-May-18 17:22 39.826345 -104.860132 177 13656ft 307kts
14-May-18 17:23 39.741903 -104.850471 178 12591ft 306kts
14-May-18 17:24 39.658491 -104.841616 174 11348ft 301kts
14-May-18 17:25 39.614236 -104.769297 90 9854ft 267kts
14-May-18 17:26 39.635587 -104.692264 30 9020ft 204kts
14-May-18 17:27 39.676033 -104.662943 41 8960ft 151kts
14-May-18 17:28 39.719819 -104.653821 341 8007ft 167kts
14-May-18 17:29 39.759495 -104.661781 4 6709ft 125kts
14-May-18 17:30 39.794811 -104.661212 2 6107ft 127kts
14-May-18 17:31 39.831227 -104.660589 3 5456ft 116kts
14-May-18 17:32 39.849036 -104.661536 329 5438ft 9kts
14-May-18 17:33 39.849259 -104.661711 329 5439ft 7kts
14-May-18 17:34 39.852971 -104.663282 268 5439ft 14kts
14-May-18 17:35 39.852804 -104.670875 268 5439ft 26kts
14-May-18 17:36 39.853186 -104.677165 3 5439ft 6kts
14-May-18 17:37 39.853386 -104.677131 10 5438ft 0kts
14-May-18 17:38 39.853386 -104.677131 10 5438ft 0kts
14-May-18 17:39 39.853386 -104.677131 10 5438ft 0kts

Navigation Log

Ident Type
1. KEGE Airport
2. VAILE Fix
3. RLG Navaid
4. RLG Navaid
5. FROGS Fix
6. RIDJE Fix
7. ALLAN Fix
8. TOMSN Fix
9. HYGEN Fix
10. FIPSS Fix
11. SHAFT Fix
12. FQF Navaid
13. KDEN Airport